Time;durP1;ratioP1;P1;durP2;ratioP2;P2;SDS_P1;SDS_P2;PMS_P1;PMS_P2;Temp;Humidity;BMP_temperature;BMP_pressure;BME280_temperature;BME280_humidity;BME280_pressure;Samples;Min_cycle;Max_cycle;Signal;HPM_P1;HPM_P2
2023/10/16 00:01:19;;;;;;;10.43;2.03;;;;;;;5.47;100.00;101127.59;5004391;28;20147;-79
2023/10/16 00:03:49;;;;;;;5.50;1.50;;;;;;;5.43;100.00;101139.88;5017752;28;20132;-73
2023/10/16 00:06:19;;;;;;;6.55;1.33;;;;;;;5.43;100.00;101144.25;5017069;28;20409;-77
2023/10/16 00:08:53;;;;;;;3.38;1.25;;;;;;;5.45;100.00;101142.44;5017626;28;20115;-77
2023/10/16 00:11:25;;;;;;;8.15;1.60;;;;;;;5.43;100.00;101147.72;5021087;28;20136;-78
2023/10/16 00:13:56;;;;;;;11.30;1.65;;;;;;;5.43;100.00;101149.47;5002675;28;20468;-76
2023/10/16 00:16:24;;;;;;;7.00;1.50;;;;;;;5.38;100.00;101149.63;5019072;28;20467;-75
2023/10/16 00:18:53;;;;;;;7.10;1.55;;;;;;;5.37;100.00;101142.69;5024336;28;20096;-76
2023/10/16 00:21:43;;;;;;;6.35;1.45;;;;;;;5.36;100.00;101148.81;5021695;28;20087;-74
2023/10/16 00:24:14;;;;;;;8.27;1.90;;;;;;;5.34;100.00;101151.44;5024075;28;20065;-75
2023/10/16 00:26:49;;;;;;;4.47;1.20;;;;;;;5.32;100.00;101153.25;5019417;28;20080;-73
2023/10/16 00:29:24;;;;;;;5.00;1.73;;;;;;;5.30;100.00;101147.22;5023112;28;20148;-73
2023/10/16 00:31:52;;;;;;;6.43;1.50;;;;;;;5.28;100.00;101151.63;5016072;28;20144;-72
2023/10/16 00:34:20;;;;;;;10.27;1.30;;;;;;;5.26;100.00;101153.41;5017116;28;20054;-72
2023/10/16 00:36:55;;;;;;;6.63;1.70;;;;;;;5.25;100.00;101156.09;5021792;28;20473;-72
2023/10/16 00:39:28;;;;;;;7.80;1.60;;;;;;;5.23;100.00;101152.69;5009133;28;20054;-72
2023/10/16 00:41:57;;;;;;;5.05;1.27;;;;;;;5.23;100.00;101157.91;5024982;28;20050;-72
2023/10/16 00:44:35;;;;;;;8.38;1.77;;;;;;;5.21;100.00;101144.00;5020925;28;20103;-71
2023/10/16 00:47:04;;;;;;;6.18;1.58;;;;;;;5.20;100.00;101148.38;5017241;28;20124;-73
2023/10/16 00:49:34;;;;;;;9.02;1.88;;;;;;;5.21;100.00;101139.66;5021491;28;20107;-73
2023/10/16 00:52:03;;;;;;;7.03;1.80;;;;;;;5.17;100.00;101151.06;5015548;28;20076;-73
2023/10/16 00:54:38;;;;;;;8.45;1.65;;;;;;;5.18;100.00;101149.31;5017832;28;20062;-72
2023/10/16 00:57:08;;;;;;;8.98;1.67;;;;;;;5.15;100.00;101149.41;5017869;28;20447;-73
2023/10/16 00:59:36;;;;;;;10.15;2.33;;;;;;;5.10;100.00;101149.53;5023213;28;20503;-73
2023/10/16 01:02:17;;;;;;;4.07;1.38;;;;;;;5.07;100.00;101147.00;5014113;28;20054;-74
2023/10/16 01:04:46;;;;;;;11.45;1.65;;;;;;;5.06;100.00;101150.53;5017684;28;20574;-77
2023/10/16 01:07:19;;;;;;;7.32;1.77;;;;;;;5.07;100.00;101154.84;5020188;28;20058;-74
2023/10/16 01:09:52;;;;;;;11.52;1.20;;;;;;;5.04;100.00;101154.91;5020378;28;20133;-73
2023/10/16 01:12:22;;;;;;;8.35;2.25;;;;;;;5.04;100.00;101157.53;5020535;28;20100;-76
2023/10/16 01:19:19;;;;;;;3.65;1.20;;;;;;;5.11;100.00;101145.19;5017647;28;20156;-71
2023/10/16 01:26:08;;;;;;;11.35;2.20;;;;;;;5.12;100.00;101150.34;5037764;22;20061;-79
2023/10/16 01:28:35;;;;;;;7.25;1.30;;;;;;;5.11;100.00;101153.84;4997716;28;20547;-77
2023/10/16 01:31:04;;;;;;;9.50;1.50;;;;;;;5.11;100.00;101143.41;4996048;28;20053;-74
2023/10/16 01:33:31;;;;;;;9.57;2.70;;;;;;;5.05;100.00;101144.47;5006921;28;20061;-74
2023/10/16 01:35:58;;;;;;;6.65;2.25;;;;;;;5.05;100.00;101136.63;5010407;28;20407;-75
2023/10/16 01:38:27;;;;;;;9.02;2.28;;;;;;;5.02;100.00;101143.69;4996605;28;20053;-77
2023/10/16 01:41:09;;;;;;;11.38;1.67;;;;;;;5.00;100.00;101138.50;4994823;28;20383;-73
2023/10/16 01:43:37;;;;;;;6.68;1.70;;;;;;;5.01;100.00;101135.00;5012559;28;20578;-76
2023/10/16 01:46:10;;;;;;;8.38;1.63;;;;;;;5.05;100.00;101133.16;4993664;28;20606;-76
2023/10/16 01:48:44;;;;;;;9.95;2.00;;;;;;;5.06;100.00;101137.47;5010110;28;20042;-74
2023/10/16 01:51:18;;;;;;;13.07;2.07;;;;;;;5.02;100.00;101148.91;5007652;28;20148;-74
2023/10/16 01:53:47;;;;;;;13.52;1.60;;;;;;;5.01;100.00;101147.19;5011948;28;20503;-75
2023/10/16 01:56:14;;;;;;;13.70;2.45;;;;;;;5.00;100.00;101146.34;5008906;28;20053;-76
2023/10/16 01:58:44;;;;;;;8.50;2.47;;;;;;;4.98;100.00;101149.88;5012989;28;20049;-75
2023/10/16 02:01:14;;;;;;;4.45;1.70;;;;;;;4.95;100.00;101147.34;5024151;28;20075;-74
2023/10/16 02:03:46;;;;;;;11.32;2.00;;;;;;;4.94;100.00;101156.94;5012388;28;20850;-74
2023/10/16 02:06:15;;;;;;;8.38;1.70;;;;;;;4.95;100.00;101148.19;4991605;28;20073;-79
2023/10/16 02:08:45;;;;;;;7.47;1.77;;;;;;;4.97;100.00;101141.19;5009170;28;21520;-74
2023/10/16 02:11:13;;;;;;;7.85;1.40;;;;;;;4.93;100.00;101147.41;5011845;28;20060;-72
2023/10/16 02:13:40;;;;;;;8.35;1.50;;;;;;;5.00;100.00;101141.13;5007790;28;20421;-72
2023/10/16 02:16:12;;;;;;;8.68;2.05;;;;;;;4.97;100.00;101145.56;5018581;28;20428;-80
2023/10/16 02:18:40;;;;;;;10.40;1.60;;;;;;;4.91;100.00;101145.72;5006741;28;20100;-75
2023/10/16 02:21:12;;;;;;;7.10;1.60;;;;;;;4.94;100.00;101143.03;5027023;28;20123;-72
2023/10/16 02:23:39;;;;;;;6.35;1.55;;;;;;;4.89;100.00;101143.16;4993224;28;20054;-73
2023/10/16 02:26:07;;;;;;;4.18;1.55;;;;;;;4.87;100.00;101144.13;5013261;28;20073;-74
2023/10/16 02:28:40;;;;;;;10.10;1.48;;;;;;;4.88;100.00;101145.81;4994887;28;20108;-73
2023/10/16 02:31:17;;;;;;;6.38;2.33;;;;;;;4.87;100.00;101144.13;5010953;28;20057;-72
2023/10/16 02:33:55;;;;;;;10.15;2.05;;;;;;;4.83;100.00;101143.34;5009566;28;20048;-74
2023/10/16 02:36:22;;;;;;;16.65;2.63;;;;;;;4.83;100.00;101151.16;5008845;28;20057;-72
2023/10/16 02:38:50;;;;;;;7.00;2.03;;;;;;;4.82;100.00;101152.91;5024967;28;20326;-75
2023/10/16 02:41:20;;;;;;;9.88;1.98;;;;;;;4.82;100.00;101152.06;5008290;28;20041;-72
2023/10/16 02:43:49;;;;;;;7.47;1.77;;;;;;;4.83;100.00;101156.38;5025157;28;20058;-74
2023/10/16 02:46:21;;;;;;;11.70;2.10;;;;;;;4.76;100.00;101160.88;5008888;28;20068;-74
2023/10/16 02:48:52;;;;;;;10.13;2.45;;;;;;;4.78;100.00;101150.44;4993320;28;20041;-75
2023/10/16 02:51:20;;;;;;;13.40;2.75;;;;;;;4.73;100.00;101160.13;4977625;28;20095;-74
2023/10/16 02:53:49;;;;;;;10.35;1.70;;;;;;;4.73;100.00;101147.94;5010454;28;20393;-75
2023/10/16 02:56:17;;;;;;;7.13;1.77;;;;;;;4.76;100.00;101157.41;5027985;28;20077;-73
2023/10/16 02:58:46;;;;;;;15.32;1.98;;;;;;;4.76;100.00;101153.06;4974654;28;20079;-75
2023/10/16 03:01:18;;;;;;;7.75;1.67;;;;;;;4.75;100.00;101155.72;5023888;28;20522;-75
2023/10/16 03:03:46;;;;;;;8.15;2.00;;;;;;;4.72;100.00;101161.00;4994376;28;20104;-77
2023/10/16 03:06:16;;;;;;;9.35;2.38;;;;;;;4.68;100.00;101159.38;4992148;28;20072;-78
2023/10/16 03:08:49;;;;;;;10.30;1.83;;;;;;;4.67;100.00;101162.88;5012932;28;20400;-74
2023/10/16 03:11:18;;;;;;;9.45;2.00;;;;;;;4.70;100.00;101158.44;5014732;28;20123;-74
2023/10/16 03:13:50;;;;;;;7.47;1.73;;;;;;;4.71;100.00;101151.47;4997274;28;20049;-74
2023/10/16 03:16:22;;;;;;;10.65;1.95;;;;;;;4.71;100.00;101164.50;5007941;28;20104;-76
2023/10/16 03:18:51;;;;;;;4.88;1.85;;;;;;;4.71;100.00;101159.28;4994450;28;20111;-75
2023/10/16 03:23:49;;;;;;;8.15;1.90;;;;;;;4.62;100.00;101164.75;4994237;28;20053;-75
2023/10/16 03:26:28;;;;;;;8.52;2.15;;;;;;;4.64;100.00;101160.34;5010921;28;20049;-74
2023/10/16 03:28:57;;;;;;;6.63;1.88;;;;;;;4.65;100.00;101167.28;4993386;28;20045;-75
2023/10/16 03:31:27;;;;;;;7.40;2.10;;;;;;;4.61;100.00;101163.03;5010765;28;20448;-74
2023/10/16 03:33:55;;;;;;;7.03;1.98;;;;;;;4.62;100.00;101175.19;5025760;28;20290;-76
2023/10/16 03:36:23;;;;;;;8.13;1.85;;;;;;;4.64;100.00;101168.16;5027460;28;20042;-78
2023/10/16 03:38:51;;;;;;;8.07;2.28;;;;;;;4.63;100.00;101162.09;4994437;28;20053;-76
2023/10/16 03:43:58;;;;;;;7.75;1.73;;;;;;;4.62;100.00;101165.59;5027896;28;20042;-76
2023/10/16 03:46:29;;;;;;;6.28;1.73;;;;;;;4.62;100.00;101159.53;5010394;28;20050;-73
2023/10/16 03:48:57;;;;;;;8.20;1.63;;;;;;;4.65;100.00;101169.91;4994216;28;20049;-73
2023/10/16 03:51:24;;;;;;;11.55;2.42;;;;;;;4.61;100.00;101158.69;5006303;28;20096;-74
2023/10/16 03:53:56;;;;;;;6.38;1.73;;;;;;;4.60;100.00;101163.94;4995866;28;20046;-73
2023/10/16 03:56:24;;;;;;;5.85;1.27;;;;;;;4.62;100.00;101167.34;5010550;28;20057;-73
2023/10/16 03:58:53;;;;;;;7.25;1.83;;;;;;;4.58;100.00;101161.34;5008263;28;20532;-74
2023/10/16 04:01:24;;;;;;;8.52;2.25;;;;;;;4.56;100.00;101161.41;5019867;28;20107;-74
2023/10/16 04:03:56;;;;;;;9.77;1.67;;;;;;;4.58;100.00;101161.34;5022085;28;20429;-68
2023/10/16 04:06:25;;;;;;;8.60;2.22;;;;;;;4.55;100.00;101151.03;5004597;28;20060;-70
2023/10/16 04:08:54;;;;;;;8.80;1.60;;;;;;;4.55;100.00;101154.50;5016351;28;20104;-70
2023/10/16 04:11:26;;;;;;;13.77;2.03;;;;;;;4.54;100.00;101157.13;5004806;28;20050;-69
2023/10/16 04:13:53;;;;;;;10.18;1.80;;;;;;;4.54;100.00;101155.34;5013879;28;20046;-70
2023/10/16 04:21:43;;;;;;;12.93;1.83;;;;;;;4.53;100.00;101153.66;5003828;28;20054;-71
2023/10/16 04:35:27;;;;;;;9.85;2.70;;;;;;;4.40;100.00;101146.19;5013481;28;20608;-69
2023/10/16 04:38:27;;;;;;;6.10;1.70;;;;;;;4.36;100.00;101158.44;5027333;28;20045;-68
2023/10/16 04:43:49;;;;;;;12.00;2.30;;;;;;;4.35;100.00;101153.28;5016335;28;20077;-70
2023/10/16 04:46:20;;;;;;;6.10;1.88;;;;;;;4.35;100.00;101156.72;5010595;28;20765;-69
2023/10/16 04:48:48;;;;;;;10.85;1.98;;;;;;;4.32;100.00;101146.38;5010196;28;20092;-71
2023/10/16 04:51:22;;;;;;;6.80;1.98;;;;;;;4.31;100.00;101155.09;5024701;28;20056;-68
2023/10/16 04:54:27;;;;;;;10.15;2.05;;;;;;;4.30;100.00;101156.84;5015597;28;20049;-70
2023/10/16 04:57:37;;;;;;;5.22;1.75;;;;;;;4.30;100.00;101159.44;5013043;28;20404;-70
2023/10/16 05:00:12;;;;;;;9.75;2.53;;;;;;;4.32;100.00;101160.28;5028611;28;20053;-70
2023/10/16 05:02:41;;;;;;;11.55;2.78;;;;;;;4.33;100.00;101158.53;5025632;28;20150;-68
2023/10/16 05:08:13;;;;;;;18.20;2.90;;;;;;;4.37;100.00;101167.09;5025774;28;20050;-70
2023/10/16 05:10:51;;;;;;;13.38;3.38;;;;;;;4.34;100.00;101165.44;5012298;28;20053;-70
2023/10/16 05:13:39;;;;;;;12.65;2.35;;;;;;;4.36;100.00;101165.41;5009926;28;20049;-67
2023/10/16 05:16:28;;;;;;;10.57;2.17;;;;;;;4.37;100.00;101157.56;5009972;28;20042;-69
2023/10/16 05:19:04;;;;;;;9.80;2.20;;;;;;;4.36;100.00;101166.25;5015445;28;20049;-71
2023/10/16 06:14:22;;;;;;;10.02;2.05;;;;;;;4.46;100.00;101190.38;5027117;28;20041;-69
2023/10/16 06:16:54;;;;;;;14.25;2.30;;;;;;;4.51;100.00;101205.00;5029309;28;20053;-71
2023/10/16 06:19:22;;;;;;;13.40;2.85;;;;;;;4.51;100.00;101197.19;5010828;28;20408;-70
2023/10/16 06:21:52;;;;;;;8.93;2.35;;;;;;;4.53;100.00;101204.94;5011032;28;20065;-69
2023/10/16 06:24:35;;;;;;;9.95;2.95;;;;;;;4.53;100.00;101202.34;5009707;28;20111;-70
2023/10/16 06:27:09;;;;;;;10.90;2.53;;;;;;;4.56;100.00;101205.75;5028728;28;20408;-71
2023/10/16 06:29:47;;;;;;;8.77;2.88;;;;;;;4.60;100.00;101203.91;5027778;28;20080;-69
2023/10/16 06:32:21;;;;;;;12.65;2.15;;;;;;;4.61;100.00;101207.38;5012363;28;20045;-70
2023/10/16 06:35:02;;;;;;;11.63;2.50;;;;;;;4.59;100.00;101215.22;5010072;28;20077;-70
2023/10/16 06:37:31;;;;;;;10.93;2.63;;;;;;;4.68;100.00;101209.78;5015263;28;20442;-69
2023/10/16 06:40:16;;;;;;;8.27;2.13;;;;;;;4.79;100.00;101201.69;5012301;28;20065;-72
2023/10/16 06:42:46;;;;;;;9.07;2.42;;;;;;;4.95;100.00;101205.59;4995141;28;20480;-70
2023/10/16 06:45:40;;;;;;;8.98;2.50;;;;;;;4.94;100.00;101209.09;5031682;28;20053;-70
2023/10/16 06:48:08;;;;;;;14.40;2.60;;;;;;;4.98;100.00;101218.56;5020475;28;20061;-69
2023/10/16 06:50:44;;;;;;;5.45;2.10;;;;;;;5.02;100.00;101212.38;4978273;28;20104;-70
2023/10/16 06:53:11;;;;;;;8.90;2.90;;;;;;;5.14;100.00;101219.03;5014283;28;20639;-70
2023/10/16 06:55:39;;;;;;;6.55;1.90;;;;;;;5.32;100.00;101217.69;5010232;28;20470;-70
2023/10/16 06:58:07;;;;;;;11.98;3.40;;;;;;;5.24;100.00;101215.28;5010705;28;20133;-69
2023/10/16 07:00:38;;;;;;;15.55;3.67;;;;;;;5.25;100.00;101219.59;5008184;28;20460;-66
2023/10/16 07:03:12;;;;;;;11.93;2.13;;;;;;;5.33;100.00;101225.47;5027395;28;20091;-72
2023/10/16 07:05:43;;;;;;;7.35;2.13;;;;;;;5.43;100.00;101228.66;5023467;28;20091;-69
2023/10/16 07:08:19;;;;;;;12.32;2.60;;;;;;;5.50;100.00;101219.78;4993237;28;20143;-70
2023/10/16 07:10:49;;;;;;;12.25;2.30;;;;;;;5.67;100.00;101221.88;5027105;28;20111;-67
2023/10/16 07:13:26;;;;;;;10.10;1.85;;;;;;;5.65;100.00;101222.84;5009482;28;20041;-70
2023/10/16 07:16:02;;;;;;;14.52;2.85;;;;;;;5.70;100.00;101213.97;4992867;28;20061;-68
2023/10/16 07:18:33;;;;;;;12.25;2.00;;;;;;;5.72;100.00;101217.41;5008183;28;20073;-70
2023/10/16 07:23:34;;;;;;;9.07;2.15;;;;;;;5.79;100.00;101210.22;5019862;28;21434;-67
2023/10/16 07:26:06;;;;;;;10.10;2.95;;;;;;;5.92;100.00;101216.81;5010781;28;20047;-71
2023/10/16 07:28:34;;;;;;;17.88;2.53;;;;;;;6.11;100.00;101216.25;5019079;28;20083;-70
2023/10/16 07:31:05;;;;;;;15.15;2.83;;;;;;;6.29;100.00;101216.53;5025757;28;20037;-71
2023/10/16 07:33:33;;;;;;;11.85;2.67;;;;;;;6.15;100.00;101223.97;5013276;28;20099;-70
2023/10/16 07:36:00;;;;;;;14.38;2.95;;;;;;;6.06;100.00;101219.03;5013231;28;20045;-69
2023/10/16 07:38:30;;;;;;;13.70;2.97;;;;;;;6.16;100.00;101224.81;5026299;28;20049;-69
2023/10/16 07:40:59;;;;;;;8.30;2.58;;;;;;;6.20;100.00;101229.03;5029674;28;20061;-70
2023/10/16 07:43:28;;;;;;;8.20;2.42;;;;;;;6.22;100.00;101241.19;5023791;28;20096;-69
2023/10/16 07:48:52;;;;;;;10.55;3.10;;;;;;;6.17;100.00;101236.97;4995686;28;20566;-70
2023/10/16 07:51:27;;;;;;;13.07;2.60;;;;;;;6.30;100.00;101248.75;5025702;28;20064;-71
2023/10/16 07:53:56;;;;;;;11.32;2.78;;;;;;;6.44;100.00;101241.38;5024842;28;20103;-70
2023/10/16 08:01:48;;;;;;;4.30;1.80;;;;;;;6.80;100.00;101254.16;4997990;28;20049;-70
2023/10/16 08:04:19;;;;;;;12.73;2.80;;;;;;;6.91;100.00;101246.78;5029045;28;20058;-70
2023/10/16 08:06:48;;;;;;;9.05;2.60;;;;;;;7.07;100.00;101247.13;5031081;28;20041;-70
2023/10/16 08:11:58;;;;;;;12.02;3.13;;;;;;;7.06;100.00;101233.16;5014332;28;20099;-71
2023/10/16 08:14:28;;;;;;;9.88;2.63;;;;;;;7.28;100.00;101256.00;5029577;28;20053;-70
2023/10/16 08:17:04;;;;;;;8.88;2.70;;;;;;;7.25;100.00;101249.13;5028902;28;20050;-70
2023/10/16 08:19:34;;;;;;;10.15;2.28;;;;;;;7.28;100.00;101240.28;5011855;28;20050;-70
2023/10/16 08:22:07;;;;;;;10.23;2.72;;;;;;;7.55;99.97;101248.91;5029957;28;20129;-70
2023/10/16 08:24:43;;;;;;;14.43;2.28;;;;;;;7.63;99.44;101256.50;5006600;28;20107;-69
2023/10/16 08:27:31;;;;;;;10.40;2.42;;;;;;;7.57;97.71;101263.69;5025243;28;20394;-70
2023/10/16 08:30:17;;;;;;;5.45;2.00;;;;;;;7.87;97.99;101261.66;5009027;28;20093;-70
2023/10/16 08:35:19;;;;;;;13.23;3.88;;;;;;;8.11;95.70;101252.03;5024504;28;20053;-71
2023/10/16 08:37:56;;;;;;;9.65;2.25;;;;;;;7.97;96.49;101249.09;5024999;28;20084;-71
2023/10/16 08:40:35;;;;;;;8.43;2.20;;;;;;;8.32;96.56;101252.09;5013560;28;20049;-71
2023/10/16 08:43:09;;;;;;;6.15;2.50;;;;;;;8.32;94.24;101252.94;5021835;28;20567;-70
2023/10/16 08:45:48;;;;;;;5.60;1.88;;;;;;;8.44;92.52;101254.28;5025230;28;20507;-71
2023/10/16 08:48:17;;;;;;;8.60;2.50;;;;;;;8.60;92.14;101255.38;5019327;28;20720;-71
2023/10/16 08:50:52;;;;;;;8.60;2.28;;;;;;;8.38;92.45;101248.44;5008378;28;20140;-71
2023/10/16 08:53:32;;;;;;;11.70;2.40;;;;;;;8.30;93.17;101248.69;5022812;28;20444;-71
2023/10/16 08:56:07;;;;;;;5.07;1.55;;;;;;;8.25;93.56;101241.00;5030916;28;20068;-69
2023/10/16 08:58:42;;;;;;;8.60;1.95;;;;;;;8.71;92.15;101239.19;5027879;28;20062;-71
2023/10/16 09:01:12;;;;;;;8.88;2.22;;;;;;;8.76;90.65;101246.84;5006493;28;21004;-68
2023/10/16 09:03:46;;;;;;;10.82;2.17;;;;;;;8.61;91.09;101250.97;5019108;28;20377;-69
2023/10/16 09:06:24;;;;;;;6.97;1.70;;;;;;;8.97;90.13;101263.50;5011010;28;20076;-70
2023/10/16 09:08:54;;;;;;;9.50;1.73;;;;;;;9.24;88.53;101256.22;5007950;28;20093;-69
2023/10/16 09:11:22;;;;;;;9.48;2.30;;;;;;;9.48;87.46;101273.53;5024886;28;20054;-70
2023/10/16 09:13:52;;;;;;;10.00;2.28;;;;;;;9.51;86.13;101264.66;5029062;28;20081;-68
2023/10/16 09:16:23;;;;;;;6.38;1.75;;;;;;;10.00;84.92;101271.19;5012951;28;20131;-70
2023/10/16 09:18:56;;;;;;;4.47;1.88;;;;;;;10.06;84.07;101265.63;5013306;28;20068;-67
2023/10/16 09:21:29;;;;;;;11.52;1.73;;;;;;;10.05;83.37;101271.84;5007452;28;20038;-69
2023/10/16 09:24:01;;;;;;;4.75;1.55;;;;;;;10.13;82.69;101267.06;4998286;28;20111;-69
2023/10/16 09:26:37;;;;;;;4.10;1.75;;;;;;;10.25;82.06;101268.28;5009066;28;20080;-69
2023/10/16 09:29:07;;;;;;;11.15;1.83;;;;;;;10.35;80.75;101271.34;5022168;28;20505;-70
2023/10/16 09:31:34;;;;;;;7.68;2.10;;;;;;;10.64;80.96;101262.91;5012131;28;20052;-70
2023/10/16 09:34:02;;;;;;;11.35;1.73;;;;;;;10.94;78.46;101259.66;4996387;28;20049;-69
2023/10/16 09:36:31;;;;;;;9.65;2.08;;;;;;;10.82;77.83;101257.66;4994143;28;20054;-68
2023/10/16 09:38:59;;;;;;;9.73;2.15;;;;;;;10.56;78.70;101266.81;5011260;28;20467;-69
2023/10/16 09:43:56;;;;;;;3.72;1.40;;;;;;;10.97;76.69;101261.28;5013904;28;20424;-69
2023/10/16 09:49:09;;;;;;;10.40;1.95;;;;;;;11.14;74.15;101277.94;5025158;28;20051;-69
2023/10/16 09:51:39;;;;;;;5.13;1.40;;;;;;;11.13;73.92;101278.88;5011039;28;20202;-68
2023/10/16 09:54:23;;;;;;;7.13;1.52;;;;;;;11.00;73.99;101279.59;4993061;28;20116;-68
2023/10/16 09:56:58;;;;;;;6.25;1.73;;;;;;;11.21;72.61;101267.94;5025973;28;20062;-70
2023/10/16 09:59:32;;;;;;;6.50;1.23;;;;;;;10.88;73.04;101275.78;5009766;28;20354;-69
2023/10/16 10:02:05;;;;;;;4.97;1.80;;;;;;;10.99;73.00;101273.47;5024875;28;20053;-71
2023/10/16 10:04:36;;;;;;;5.13;1.23;;;;;;;10.94;73.50;101277.25;4997581;28;20543;-68
2023/10/16 10:07:11;;;;;;;5.13;2.22;;;;;;;10.60;73.85;101285.03;5025657;28;20524;-70
2023/10/16 10:09:41;;;;;;;5.93;1.70;;;;;;;10.21;75.79;101292.16;5006345;28;20065;-70
2023/10/16 10:12:28;;;;;;;7.30;1.50;;;;;;;10.18;75.35;101285.28;5023482;28;20049;-71
2023/10/16 10:15:12;;;;;;;5.80;1.65;;;;;;;9.98;75.64;101287.97;5012597;28;20060;-71
2023/10/16 10:17:42;;;;;;;7.55;1.83;;;;;;;9.86;76.23;101279.72;5031876;28;20095;-70
2023/10/16 10:20:23;;;;;;;9.13;2.05;;;;;;;10.35;75.73;101287.13;5014273;28;20148;-71
2023/10/16 10:22:55;;;;;;;8.23;1.75;;;;;;;11.01;74.39;101270.75;5014503;28;20141;-70
2023/10/16 10:25:37;;;;;;;8.65;1.60;;;;;;;11.02;73.44;101273.28;5009035;28;20065;-71
2023/10/16 10:28:17;;;;;;;6.05;1.50;;;;;;;11.65;71.76;101270.88;5009680;28;20064;-70
2023/10/16 10:30:45;;;;;;;7.13;1.60;;;;;;;11.72;70.02;101274.06;5025545;28;20065;-68
2023/10/16 10:33:14;;;;;;;5.63;1.77;;;;;;;11.45;70.82;101276.38;5023759;28;20050;-74
2023/10/16 10:35:43;;;;;;;5.60;1.20;;;;;;;11.26;71.12;101283.53;5011547;28;20053;-70
2023/10/16 10:38:21;;;;;;;5.68;1.92;;;;;;;11.34;72.37;101278.69;5028922;28;20049;-71
2023/10/16 10:41:03;;;;;;;5.97;2.35;;;;;;;11.55;69.79;101277.59;5026192;28;20173;-71
2023/10/16 10:43:50;;;;;;;10.55;2.30;;;;;;;11.51;69.56;101273.41;5025575;28;20053;-70
2023/10/16 10:46:21;;;;;;;5.93;1.38;;;;;;;11.15;71.37;101270.91;5024879;28;20073;-71
2023/10/16 10:48:48;;;;;;;12.05;1.88;;;;;;;11.10;70.90;101271.13;5027624;28;20065;-70
2023/10/16 10:51:16;;;;;;;11.45;2.00;;;;;;;11.10;69.77;101275.56;5028425;28;20665;-71
2023/10/16 10:54:06;;;;;;;8.73;2.10;;;;;;;10.96;70.33;101272.75;5025257;28;20052;-71
2023/10/16 10:56:53;;;;;;;6.63;1.63;;;;;;;11.24;70.55;101267.78;5025486;28;20049;-71
2023/10/16 10:59:41;;;;;;;8.75;1.52;;;;;;;10.96;70.63;101264.84;5024348;28;20057;-70
2023/10/16 11:04:58;;;;;;;6.70;1.33;;;;;;;11.41;68.91;101272.19;5028147;28;20127;-71
2023/10/16 11:07:39;;;;;;;5.43;1.45;;;;;;;11.68;68.61;101271.69;5005286;28;20139;-69
2023/10/16 11:10:07;;;;;;;5.03;1.02;;;;;;;12.14;66.30;101262.16;5013030;28;20224;-71
2023/10/16 11:16:53;;;;;;;8.43;1.73;;;;;;;10.92;67.94;101264.16;5001464;28;20038;-56
2023/10/16 11:19:28;;;;;;;5.00;1.48;;;;;;;10.75;68.66;101258.88;5003214;28;20073;-55
2023/10/16 11:22:00;;;;;;;7.63;1.23;;;;;;;10.40;70.95;101261.44;5001165;28;20225;-58
2023/10/16 11:24:27;;;;;;;6.13;1.17;;;;;;;10.56;70.75;101265.03;4998894;28;20050;-55
2023/10/16 11:26:55;;;;;;;4.43;1.30;;;;;;;10.54;70.94;101263.44;4997733;28;20085;-57
2023/10/16 11:29:23;;;;;;;6.00;1.67;;;;;;;10.50;71.64;101259.25;5000902;28;20149;-56
2023/10/16 11:31:52;;;;;;;4.07;1.52;;;;;;;10.48;72.00;101268.97;4987823;28;20065;-52
2023/10/16 11:34:21;;;;;;;15.75;2.70;;;;;;;10.33;73.20;101254.78;5000229;28;20088;-55
2023/10/16 11:36:50;;;;;;;6.55;1.48;;;;;;;10.30;74.38;101252.28;5002273;28;20140;-56
2023/10/16 11:39:21;;;;;;;5.85;1.25;;;;;;;10.71;73.94;101252.91;5002212;28;20121;-56
2023/10/16 11:41:49;;;;;;;3.92;1.13;;;;;;;11.06;72.04;101258.19;5001123;28;20070;-55
2023/10/16 11:44:17;;;;;;;5.97;1.30;;;;;;;11.35;68.85;101256.72;4996563;28;20054;-56
2023/10/16 11:46:46;;;;;;;5.00;1.45;;;;;;;11.16;69.85;101252.34;5004385;28;20054;-59
2023/10/16 11:49:22;;;;;;;4.78;1.33;;;;;;;11.00;69.96;101251.47;4971958;28;20077;-57
2023/10/16 11:51:51;;;;;;;7.30;1.40;;;;;;;10.86;71.19;101252.16;5002189;28;20065;-57
2023/10/16 11:54:23;;;;;;;7.53;1.52;;;;;;;10.73;70.23;101247.56;4996703;28;20078;-56
2023/10/16 11:56:55;;;;;;;5.55;1.30;;;;;;;10.79;70.43;101245.47;4993989;28;20101;-57
2023/10/16 11:59:28;;;;;;;5.00;1.30;;;;;;;11.12;69.64;101244.69;5004597;28;20124;-57
2023/10/16 12:01:59;;;;;;;5.70;1.05;;;;;;;11.36;68.70;101237.31;5002084;28;20148;-59
2023/10/16 12:04:30;;;;;;;5.90;1.70;;;;;;;11.33;68.67;101238.31;4995015;28;20077;-59
2023/10/16 12:06:59;;;;;;;6.18;1.67;;;;;;;10.74;69.14;101239.59;4998176;28;20662;-56
2023/10/16 12:09:34;;;;;;;3.22;1.25;;;;;;;10.61;69.72;101247.22;4998657;28;20439;-53
2023/10/16 12:12:06;;;;;;;;;;;;;;;10.37;69.73;101243.19;5001416;28;20078;-56
2023/10/16 12:14:37;;;;;;;4.05;1.02;;;;;;;10.48;69.55;101248.75;4988247;28;19921;-56
2023/10/16 12:17:11;;;;;;;6.15;1.42;;;;;;;12.27;66.10;101244.69;5003802;28;20116;-54
2023/10/16 12:19:39;;;;;;;3.78;1.00;;;;;;;13.27;61.50;101237.13;4982497;28;20081;-57
2023/10/16 12:22:08;;;;;;;4.35;1.30;;;;;;;12.99;61.31;101237.91;4990825;28;20050;-56
2023/10/16 12:24:36;;;;;;;5.45;1.13;;;;;;;12.34;63.36;101239.94;5000200;28;20054;-54
2023/10/16 12:27:04;;;;;;;2.35;1.00;;;;;;;12.19;63.74;101233.72;5002268;28;20137;-56
2023/10/16 12:29:31;;;;;;;5.45;1.10;;;;;;;12.04;64.28;101247.75;5000057;28;20092;-55
2023/10/16 12:32:02;;;;;;;7.50;1.25;;;;;;;11.83;65.06;101239.22;4995724;28;20145;-58
2023/10/16 12:34:32;;;;;;;5.10;1.02;;;;;;;11.08;67.12;101236.13;5007966;28;20135;-54
2023/10/16 12:37:00;;;;;;;6.07;1.50;;;;;;;10.88;68.52;101239.75;5003998;28;20791;-56
2023/10/16 12:39:30;;;;;;;8.95;2.28;;;;;;;10.80;67.93;101244.53;4976819;28;20171;-57
2023/10/16 12:41:59;;;;;;;3.90;1.10;;;;;;;10.30;69.50;101249.66;4997654;28;20977;-58
2023/10/16 12:44:26;;;;;;;6.90;1.17;;;;;;;10.13;70.93;101245.13;5002812;28;20080;-56
2023/10/16 12:46:55;;;;;;;6.20;1.40;;;;;;;10.17;71.02;101248.50;5005703;28;20233;-53
2023/10/16 12:49:23;;;;;;;5.75;1.13;;;;;;;10.10;70.90;101253.19;5003861;28;20547;-59
2023/10/16 12:51:50;;;;;;;8.63;1.33;;;;;;;10.06;71.20;101246.38;5006595;28;20101;-57
2023/10/16 12:54:20;;;;;;;4.30;1.23;;;;;;;10.11;71.38;101250.50;5001498;28;20547;-56
2023/10/16 12:56:48;;;;;;;5.95;1.52;;;;;;;10.14;72.19;101250.34;4997745;28;20078;-57
2023/10/16 12:59:15;;;;;;;4.60;1.17;;;;;;;10.13;72.60;101250.41;5001306;28;20173;-56
2023/10/16 13:01:45;;;;;;;2.63;1.00;;;;;;;10.25;72.46;101249.00;5002846;28;20073;-56
2023/10/16 13:04:16;;;;;;;6.68;1.30;;;;;;;10.17;72.14;101246.72;5002420;28;20073;-56
2023/10/16 13:06:43;;;;;;;3.63;1.13;;;;;;;10.22;72.40;101250.00;5006914;28;20080;-57
2023/10/16 13:09:18;;;;;;;8.20;1.05;;;;;;;10.32;72.40;101258.34;5008555;28;20049;-54
2023/10/16 13:11:46;;;;;;;6.03;1.20;;;;;;;10.23;72.46;101253.47;5004801;28;20057;-56
2023/10/16 13:14:13;;;;;;;4.95;1.23;;;;;;;10.37;72.09;101248.44;4989254;28;20054;-60
2023/10/16 13:16:41;;;;;;;6.28;1.65;;;;;;;10.39;71.98;101243.94;5002674;28;20193;-60
2023/10/16 13:19:09;;;;;;;5.70;1.80;;;;;;;10.54;71.90;101245.00;5006335;28;20550;-57
2023/10/16 13:21:41;;;;;;;6.25;1.17;;;;;;;10.54;71.05;101245.00;5005359;28;20057;-55
2023/10/16 13:24:10;;;;;;;4.22;1.05;;;;;;;10.67;71.20;101242.59;5004068;28;20062;-55
2023/10/16 13:26:41;;;;;;;5.72;1.27;;;;;;;10.77;71.01;101247.34;5002834;28;20073;-59
2023/10/16 13:29:10;;;;;;;3.75;1.13;;;;;;;10.76;70.59;101239.50;5003738;28;20049;-59
2023/10/16 13:31:41;;;;;;;3.45;1.27;;;;;;;10.61;70.52;101251.66;5001190;28;20066;-56
2023/10/16 13:34:13;;;;;;;3.35;1.00;;;;;;;10.67;70.82;101243.44;4999356;28;20482;-58
2023/10/16 13:37:00;;;;;;;3.20;1.42;;;;;;;10.63;70.70;101252.44;5001087;28;20077;-53
2023/10/16 13:39:38;;;;;;;3.67;1.00;;;;;;;10.69;70.53;101244.22;5004454;28;20073;-56
2023/10/16 13:42:09;;;;;;;10.95;1.27;;;;;;;10.71;68.89;101252.91;4999350;28;21870;-57
2023/10/16 13:44:36;;;;;;;5.97;1.25;;;;;;;10.60;69.39;101249.94;5003483;28;20073;-57